createdAt,value
2023-04-16T00:00:38.353Z,4.69
2023-04-16T00:03:43.082Z,4.53
2023-04-16T00:06:47.872Z,4.56
2023-04-16T00:09:52.509Z,5.23
2023-04-16T00:12:57.008Z,4.91
2023-04-16T00:16:01.659Z,4.93
2023-04-16T00:19:06.244Z,5.10
2023-04-16T00:22:10.942Z,5.04
2023-04-16T00:25:15.786Z,4.86
2023-04-16T00:28:20.399Z,4.50
2023-04-16T00:31:29.881Z,4.35
2023-04-16T00:34:34.509Z,4.52
2023-04-16T00:37:39.105Z,4.44
2023-04-16T00:40:43.703Z,4.45
2023-04-16T00:43:48.629Z,4.51
2023-04-16T00:46:53.872Z,4.83
2023-04-16T00:49:58.729Z,4.95
2023-04-16T00:53:04.009Z,5.16
2023-04-16T00:56:09.852Z,4.90
2023-04-16T00:59:14.811Z,5.15
2023-04-16T01:02:19.786Z,5.25
2023-04-16T01:05:24.438Z,5.01
2023-04-16T01:08:29.047Z,5.01
2023-04-16T01:11:33.700Z,4.99
2023-04-16T01:14:38.456Z,5.10
2023-04-16T01:17:46.100Z,5.20
2023-04-16T01:20:51.287Z,5.20
2023-04-16T01:23:56.076Z,5.14
2023-04-16T01:27:00.956Z,5.32
2023-04-16T01:30:06.539Z,5.13
2023-04-16T01:33:22.730Z,4.51
2023-04-16T01:36:27.368Z,4.57
2023-04-16T01:39:32.861Z,4.56
2023-04-16T01:42:38.534Z,4.46
2023-04-16T01:45:43.159Z,4.24
2023-04-16T01:48:49.708Z,4.39
2023-04-16T01:51:54.361Z,4.44
2023-04-16T01:54:58.952Z,4.65
2023-04-16T01:58:03.669Z,4.74
2023-04-16T02:01:11.944Z,4.50
2023-04-16T02:04:17.554Z,5.11
2023-04-16T02:07:22.357Z,4.43
2023-04-16T02:10:27.070Z,4.84
2023-04-16T02:13:32.368Z,4.83
2023-04-16T02:16:37.071Z,4.61
2023-04-16T02:20:18.092Z,4.67
2023-04-16T02:23:31.005Z,4.63
2023-04-16T02:26:36.870Z,4.50
2023-04-16T02:29:46.610Z,4.72
2023-04-16T02:32:54.744Z,4.51
2023-04-16T02:36:00.054Z,4.52
2023-04-16T02:39:04.749Z,4.36
2023-04-16T02:42:09.331Z,4.26
2023-04-16T02:45:14.517Z,4.36
2023-04-16T02:48:19.158Z,4.42
2023-04-16T02:51:23.697Z,4.35
2023-04-16T02:54:28.480Z,4.36
2023-04-16T02:57:33.379Z,3.97
2023-04-16T03:00:38.438Z,4.17
2023-04-16T03:03:43.274Z,4.13
2023-04-16T03:06:47.883Z,3.80
2023-04-16T03:09:52.454Z,3.82
2023-04-16T03:12:57.161Z,4.07
2023-04-16T03:16:02.441Z,3.52
2023-04-16T03:19:07.268Z,4.13
2023-04-16T03:22:11.988Z,4.01
2023-04-16T03:25:16.759Z,4.33
2023-04-16T03:28:21.305Z,3.89
2023-04-16T03:31:26.430Z,3.85
2023-04-16T03:34:33.399Z,4.25
2023-04-16T03:37:38.184Z,4.36
2023-04-16T03:40:43.052Z,4.58
2023-04-16T03:43:47.651Z,4.61
2023-04-16T03:46:53.816Z,4.88
2023-04-16T03:49:59.363Z,4.68
2023-04-16T03:53:05.711Z,4.82
2023-04-16T03:56:11.058Z,5.04
2023-04-16T03:59:15.605Z,4.80
2023-04-16T04:02:22.140Z,4.68
2023-04-16T04:05:27.274Z,4.43
2023-04-16T04:08:31.874Z,4.41
2023-04-16T04:11:36.622Z,4.40
2023-04-16T04:14:41.495Z,4.09
2023-04-16T04:17:46.344Z,4.23
2023-04-16T04:20:51.656Z,4.43
2023-04-16T04:23:58.847Z,4.36
2023-04-16T04:27:03.712Z,4.35
2023-04-16T04:30:09.702Z,4.22
2023-04-16T04:33:14.603Z,4.37
2023-04-16T04:36:20.114Z,4.37
2023-04-16T04:39:25.666Z,4.38
2023-04-16T04:42:30.349Z,4.36
2023-04-16T04:45:35.024Z,3.59
2023-04-16T04:48:40.002Z,3.88
2023-04-16T04:51:44.616Z,4.32
2023-04-16T04:54:49.277Z,4.25
2023-04-16T04:57:53.920Z,4.63
2023-04-16T05:00:58.605Z,4.80
2023-04-16T05:04:03.254Z,4.90
2023-04-16T05:07:08.016Z,4.80
2023-04-16T05:10:12.573Z,4.90
2023-04-16T05:13:17.151Z,5.21
2023-04-16T05:16:21.875Z,5.16
2023-04-16T05:19:26.426Z,5.38
2023-04-16T05:22:31.049Z,5.07
2023-04-16T05:25:35.692Z,4.95
2023-04-16T05:28:40.365Z,4.99
2023-04-16T05:31:45.216Z,4.95
2023-04-16T05:34:49.758Z,4.92
2023-04-16T05:37:54.557Z,5.16
2023-04-16T05:40:59.332Z,5.05
2023-04-16T05:44:04.178Z,5.15
2023-04-16T05:47:09.631Z,5.36
2023-04-16T05:50:14.298Z,5.22
2023-04-16T05:53:19.024Z,5.37
2023-04-16T05:56:23.740Z,5.15
2023-04-16T05:59:29.231Z,5.30
2023-04-16T06:02:33.975Z,4.90
2023-04-16T06:05:38.854Z,5.26
2023-04-16T06:08:43.576Z,5.14
2023-04-16T06:11:48.866Z,5.48
2023-04-16T06:14:53.400Z,5.75
2023-04-16T06:18:00.196Z,5.79
2023-04-16T06:21:05.855Z,5.99
2023-04-16T06:24:10.574Z,6.29
2023-04-16T06:27:15.127Z,6.02
2023-04-16T06:30:20.066Z,5.90
2023-04-16T06:33:24.657Z,5.72
2023-04-16T06:36:29.304Z,5.68
2023-04-16T06:39:33.899Z,5.90
2023-04-16T06:42:38.457Z,5.77
2023-04-16T06:45:43.066Z,7.28
2023-04-16T06:48:47.834Z,7.92
2023-04-16T06:51:52.536Z,8.48
2023-04-16T06:54:57.119Z,7.83
2023-04-16T06:58:01.677Z,7.31
2023-04-16T07:01:06.630Z,7.92
2023-04-16T07:04:12.253Z,7.35
2023-04-16T07:07:16.805Z,7.32
2023-04-16T07:10:21.515Z,6.52
2023-04-16T07:13:26.191Z,6.76
2023-04-16T07:16:30.907Z,7.38
2023-04-16T07:19:35.900Z,7.16
2023-04-16T07:22:40.556Z,7.50
2023-04-16T07:25:46.008Z,7.58
2023-04-16T07:28:50.814Z,7.83
2023-04-16T07:31:55.547Z,7.39
2023-04-16T07:35:00.729Z,8.24
2023-04-16T07:38:05.946Z,8.60
2023-04-16T07:41:10.856Z,8.67
2023-04-16T07:44:15.736Z,8.53
2023-04-16T07:47:20.537Z,8.64
2023-04-16T07:50:25.373Z,8.42
2023-04-16T07:53:30.246Z,8.08
2023-04-16T07:56:34.863Z,8.78
2023-04-16T07:59:39.387Z,8.82
2023-04-16T08:02:44.537Z,8.41
2023-04-16T08:05:49.337Z,8.88
2023-04-16T08:08:53.913Z,8.63
2023-04-16T08:12:00.762Z,9.60
2023-04-16T08:15:06.375Z,10.09
2023-04-16T08:18:15.480Z,9.58
2023-04-16T08:21:20.074Z,9.65
2023-04-16T08:24:24.707Z,9.77
2023-04-16T08:27:29.271Z,11.37
2023-04-16T08:30:34.004Z,11.18
2023-04-16T08:33:40.275Z,10.37
2023-04-16T08:36:46.032Z,10.09
2023-04-16T08:39:50.711Z,10.03
2023-04-16T08:42:58.860Z,9.98
2023-04-16T08:46:05.734Z,9.42
2023-04-16T08:49:17.969Z,9.88
2023-04-16T08:52:24.374Z,9.24
2023-04-16T08:55:47.138Z,10.11
2023-04-16T08:58:54.739Z,12.05
2023-04-16T09:02:00.712Z,11.87
2023-04-16T09:05:07.507Z,12.36
2023-04-16T09:08:12.663Z,12.40
2023-04-16T09:11:20.516Z,11.75
2023-04-16T09:14:25.314Z,12.26
2023-04-16T09:17:29.902Z,11.25
2023-04-16T09:20:34.710Z,11.38
2023-04-16T09:23:40.127Z,11.41
2023-04-16T09:26:45.096Z,10.59
2023-04-16T09:29:49.694Z,10.00
2023-04-16T09:33:22.637Z,10.27
2023-04-16T09:36:28.115Z,11.14
2023-04-16T09:39:32.980Z,10.45
2023-04-16T09:42:37.783Z,10.20
2023-04-16T09:45:53.408Z,9.76
2023-04-16T09:48:58.450Z,11.09
2023-04-16T09:52:03.317Z,11.07
2023-04-16T09:55:08.105Z,11.46
2023-04-16T09:58:12.717Z,11.12
2023-04-16T10:01:18.357Z,11.19
2023-04-16T10:04:23.076Z,10.45
2023-04-16T10:07:35.424Z,9.94
2023-04-16T10:10:40.498Z,11.50
2023-04-16T10:13:45.457Z,11.67
2023-04-16T10:16:51.063Z,12.01
2023-04-16T10:19:57.246Z,13.17
2023-04-16T10:23:02.270Z,12.98
2023-04-16T10:26:07.093Z,12.81
2023-04-16T10:29:13.525Z,11.71
2023-04-16T10:32:20.799Z,11.95
2023-04-16T10:35:26.104Z,11.27
2023-04-16T10:38:30.802Z,11.02
2023-04-16T10:41:37.131Z,11.37
2023-04-16T10:44:45.043Z,10.89
2023-04-16T10:47:50.315Z,10.55
2023-04-16T10:50:57.289Z,10.95
2023-04-16T10:54:20.839Z,10.96
2023-04-16T10:57:29.174Z,11.73
2023-04-16T11:00:49.296Z,10.66
2023-04-16T11:03:54.074Z,10.40
2023-04-16T11:07:14.063Z,11.67
2023-04-16T11:23:50.488Z,14.38
2023-04-16T11:36:42.370Z,22.83
2023-04-16T11:45:19.199Z,24.37
2023-04-16T11:53:33.955Z,12.62
2023-04-16T11:56:38.715Z,12.28
2023-04-16T12:00:02.229Z,12.29
2023-04-16T12:03:17.233Z,10.58
2023-04-16T12:29:21.918Z,23.58
2023-04-16T12:39:42.005Z,12.36
2023-04-16T12:42:46.670Z,12.23
2023-04-16T12:45:51.305Z,11.04
2023-04-16T12:48:57.545Z,10.96
2023-04-16T12:52:02.986Z,11.50
2023-04-16T12:55:07.753Z,11.33
2023-04-16T12:58:12.694Z,11.52
2023-04-16T13:01:19.209Z,11.18
2023-04-16T13:04:25.681Z,11.64
2023-04-16T13:07:32.194Z,11.31
2023-04-16T13:10:36.720Z,11.85
2023-04-16T13:13:41.257Z,11.08
2023-04-16T13:16:45.775Z,11.08
2023-04-16T13:19:50.333Z,11.97
2023-04-16T13:22:54.895Z,12.25
2023-04-16T13:25:59.382Z,13.43
2023-04-16T13:29:07.106Z,14.30
2023-04-16T13:32:13.801Z,12.63
2023-04-16T13:35:18.366Z,16.58
2023-04-16T13:38:22.932Z,16.25
2023-04-16T13:41:27.678Z,15.48
2023-04-16T13:44:32.351Z,14.64
2023-04-16T13:47:37.844Z,14.33
2023-04-16T13:50:42.350Z,14.40
2023-04-16T13:53:46.938Z,14.72
2023-04-16T13:56:51.535Z,13.54
2023-04-16T13:59:56.326Z,12.78
2023-04-16T14:03:00.996Z,13.65
2023-04-16T14:06:05.718Z,14.09
2023-04-16T14:09:12.236Z,13.46
2023-04-16T14:12:16.883Z,12.89
2023-04-16T14:15:21.489Z,12.81
2023-04-16T14:18:25.990Z,11.28
2023-04-16T14:21:31.311Z,10.68
2023-04-16T14:24:35.840Z,10.56
2023-04-16T14:27:41.214Z,9.55
2023-04-16T14:30:45.747Z,9.41
2023-04-16T14:33:50.380Z,8.46
2023-04-16T14:36:54.961Z,9.03
2023-04-16T14:40:00.003Z,9.45
2023-04-16T14:43:04.621Z,9.80
2023-04-16T14:46:09.279Z,8.94
2023-04-16T14:49:14.686Z,8.97
2023-04-16T14:52:19.389Z,9.34
2023-04-16T14:55:23.928Z,9.14
2023-04-16T14:58:28.373Z,9.01
2023-04-16T15:01:34.465Z,8.51
2023-04-16T15:04:39.046Z,9.02
2023-04-16T15:07:43.590Z,8.36
2023-04-16T15:10:48.021Z,8.63
2023-04-16T15:13:52.470Z,8.56
2023-04-16T15:16:57.043Z,8.55
2023-04-16T15:20:01.598Z,8.77
2023-04-16T15:23:06.109Z,8.64
2023-04-16T15:26:10.650Z,8.46
2023-04-16T15:29:15.818Z,8.56
2023-04-16T15:32:20.320Z,9.82
2023-04-16T15:35:24.852Z,10.63
2023-04-16T15:38:30.845Z,11.61
2023-04-16T15:41:46.978Z,11.88
2023-04-16T15:45:01.930Z,12.53
2023-04-16T15:48:06.537Z,11.27
2023-04-16T15:51:11.357Z,11.60
2023-04-16T15:54:15.902Z,12.38
2023-04-16T15:57:20.464Z,11.86
2023-04-16T16:00:25.036Z,12.17
2023-04-16T16:03:29.841Z,11.11
2023-04-16T16:06:37.858Z,10.84
2023-04-16T16:09:42.674Z,10.95
2023-04-16T16:12:48.038Z,10.11
2023-04-16T16:15:52.528Z,9.52
2023-04-16T16:18:57.045Z,9.95
2023-04-16T16:22:01.554Z,10.62
2023-04-16T16:25:07.437Z,9.64
2023-04-16T16:28:11.928Z,10.25
2023-04-16T16:31:16.518Z,10.06
2023-04-16T16:34:23.149Z,9.63
2023-04-16T16:37:28.992Z,9.65
2023-04-16T16:40:33.492Z,9.32
2023-04-16T16:43:38.022Z,9.33
2023-04-16T16:46:42.988Z,9.89
2023-04-16T16:49:48.372Z,9.92
2023-04-16T16:52:58.628Z,9.60
2023-04-16T16:56:03.162Z,9.07
2023-04-16T16:59:08.928Z,9.81
2023-04-16T17:02:15.055Z,9.23
2023-04-16T17:05:21.002Z,9.22
2023-04-16T17:08:26.898Z,8.92
2023-04-16T17:11:31.410Z,8.93
2023-04-16T17:14:36.023Z,8.59
2023-04-16T17:17:40.540Z,9.02
2023-04-16T17:22:33.618Z,8.25
2023-04-16T17:27:19.077Z,8.93
2023-04-16T17:30:25.806Z,9.00
2023-04-16T17:33:30.333Z,9.17
2023-04-16T17:36:36.943Z,8.17
2023-04-16T17:39:41.364Z,8.32
2023-04-16T17:42:46.109Z,8.27
2023-04-16T17:45:50.606Z,8.40
2023-04-16T17:48:55.254Z,8.14
2023-04-16T17:51:59.687Z,7.90
2023-04-16T17:55:05.802Z,8.05
2023-04-16T17:58:10.216Z,8.13
2023-04-16T18:01:14.764Z,8.24
2023-04-16T18:04:19.645Z,8.32
2023-04-16T18:07:24.404Z,8.28
2023-04-16T18:10:31.456Z,8.10
2023-04-16T18:13:36.161Z,8.25
2023-04-16T18:16:41.758Z,8.23
2023-04-16T18:19:46.234Z,8.17
2023-04-16T18:22:50.798Z,8.05
2023-04-16T18:25:55.211Z,7.83
2023-04-16T18:29:00.353Z,8.12
2023-04-16T18:32:05.816Z,7.52
2023-04-16T18:35:10.851Z,7.55
2023-04-16T18:38:16.214Z,7.44
2023-04-16T18:41:21.315Z,7.41
2023-04-16T18:44:26.287Z,7.80
2023-04-16T18:47:31.059Z,7.42
2023-04-16T18:50:35.752Z,7.88
2023-04-16T18:53:42.188Z,7.92
2023-04-16T18:56:46.771Z,7.56
2023-04-16T18:59:51.306Z,7.90
2023-04-16T19:02:55.897Z,7.69
2023-04-16T19:06:00.332Z,7.67
2023-04-16T19:09:06.480Z,7.49
2023-04-16T19:12:11.181Z,7.69
2023-04-16T19:15:15.949Z,7.63
2023-04-16T19:18:20.535Z,7.83
2023-04-16T19:21:25.776Z,8.38
2023-04-16T19:24:31.843Z,8.43
2023-04-16T19:27:37.672Z,9.15
2023-04-16T19:30:43.394Z,9.14
2023-04-16T19:33:47.865Z,9.25
2023-04-16T19:36:54.266Z,9.06
2023-04-16T19:39:59.664Z,8.80
2023-04-16T19:43:04.166Z,9.16
2023-04-16T19:46:08.910Z,9.04
2023-04-16T19:49:13.543Z,9.18
2023-04-16T19:52:18.167Z,9.69
2023-04-16T19:55:24.360Z,9.89
2023-04-16T19:58:28.825Z,9.84
2023-04-16T20:01:33.384Z,9.55
2023-04-16T20:04:38.404Z,9.63
2023-04-16T20:07:42.906Z,9.91
2023-04-16T20:10:47.393Z,9.81
2023-04-16T20:13:51.824Z,9.76
2023-04-16T20:16:58.338Z,9.99
2023-04-16T20:20:08.045Z,9.64
2023-04-16T20:23:13.166Z,9.42
2023-04-16T20:26:18.199Z,9.60
2023-04-16T20:29:22.732Z,9.29
2023-04-16T20:32:27.992Z,9.58
2023-04-16T20:35:33.981Z,8.79
2023-04-16T20:38:38.929Z,9.01
2023-04-16T20:41:44.123Z,9.54
2023-04-16T20:44:56.202Z,9.53
2023-04-16T20:48:00.818Z,9.15
2023-04-16T20:51:07.653Z,9.39
2023-04-16T20:54:12.207Z,9.20
2023-04-16T20:57:18.351Z,9.14
2023-04-16T21:00:22.998Z,8.83
2023-04-16T21:03:27.642Z,8.50
2023-04-16T21:06:33.936Z,8.22
2023-04-16T21:09:38.445Z,8.11
2023-04-16T21:12:42.947Z,8.62
2023-04-16T21:15:47.503Z,8.83
2023-04-16T21:18:53.233Z,8.33
2023-04-16T21:21:57.752Z,8.42
2023-04-16T21:25:02.592Z,8.68
2023-04-16T21:28:07.203Z,8.80
2023-04-16T21:31:11.766Z,8.54
2023-04-16T21:34:16.248Z,8.30
2023-04-16T21:37:20.764Z,8.12
2023-04-16T21:40:25.295Z,8.23
2023-04-16T21:43:32.717Z,8.13
2023-04-16T21:46:37.219Z,8.44
2023-04-16T21:49:42.295Z,8.29
2023-04-16T21:52:46.841Z,8.50
2023-04-16T21:55:51.624Z,8.70
2023-04-16T21:58:56.089Z,8.52
2023-04-16T22:02:00.963Z,8.98
2023-04-16T22:05:06.239Z,8.73
2023-04-16T22:08:23.177Z,8.66
2023-04-16T22:11:28.857Z,8.98
2023-04-16T22:14:36.798Z,8.78
2023-04-16T22:17:41.503Z,9.05
2023-04-16T22:20:47.198Z,9.01
2023-04-16T22:23:51.685Z,8.90
2023-04-16T22:26:56.929Z,8.60
2023-04-16T22:30:01.798Z,8.36
2023-04-16T22:33:06.430Z,8.72
2023-04-16T22:36:11.083Z,8.79
2023-04-16T22:39:17.227Z,8.18
2023-04-16T22:42:21.772Z,8.41
2023-04-16T22:45:27.215Z,7.41
2023-04-16T22:48:33.832Z,7.10
2023-04-16T22:51:38.405Z,6.92
2023-04-16T22:54:42.878Z,7.05
2023-04-16T22:57:47.623Z,7.12
2023-04-16T23:00:52.518Z,7.17
2023-04-16T23:03:57.156Z,7.11
2023-04-16T23:07:01.677Z,7.20
2023-04-16T23:10:08.245Z,7.08
2023-04-16T23:13:13.602Z,6.53
2023-04-16T23:16:18.135Z,6.60
2023-04-16T23:19:22.804Z,6.45
2023-04-16T23:22:27.987Z,6.93
2023-04-16T23:25:33.009Z,7.11
2023-04-16T23:28:38.422Z,7.57
2023-04-16T23:31:43.217Z,7.16
2023-04-16T23:34:48.450Z,6.56
2023-04-16T23:37:53.480Z,6.57
2023-04-16T23:40:58.092Z,6.45
2023-04-16T23:44:02.712Z,6.36
2023-04-16T23:47:07.246Z,6.37
2023-04-16T23:50:11.844Z,6.94
2023-04-16T23:53:18.287Z,6.98
2023-04-16T23:56:22.707Z,7.25
2023-04-16T23:59:27.276Z,6.29
